sensor_id;sensor_type;location;lat;lon;timestamp;P1;durP1;ratioP1;P2;durP2;ratioP2
60847;SDS011;46681;47.696;9.140;2023-02-13T00:01:21;9.70;;;8.70;;
60847;SDS011;46681;47.696;9.140;2023-02-13T00:03:47;8.87;;;7.73;;
60847;SDS011;46681;47.696;9.140;2023-02-13T00:06:12;10.37;;;8.57;;
60847;SDS011;46681;47.696;9.140;2023-02-13T00:08:38;9.23;;;8.23;;
60847;SDS011;46681;47.696;9.140;2023-02-13T00:11:03;9.47;;;8.47;;
60847;SDS011;46681;47.696;9.140;2023-02-13T00:13:32;9.03;;;7.93;;
60847;SDS011;46681;47.696;9.140;2023-02-13T00:15:58;9.33;;;7.83;;
60847;SDS011;46681;47.696;9.140;2023-02-13T00:18:27;9.93;;;8.40;;
60847;SDS011;46681;47.696;9.140;2023-02-13T00:21:00;9.53;;;7.90;;
60847;SDS011;46681;47.696;9.140;2023-02-13T00:23:29;10.70;;;8.63;;
60847;SDS011;46681;47.696;9.140;2023-02-13T00:25:55;8.77;;;7.67;;
60847;SDS011;46681;47.696;9.140;2023-02-13T00:28:23;8.60;;;7.70;;
60847;SDS011;46681;47.696;9.140;2023-02-13T00:30:50;8.77;;;7.83;;
60847;SDS011;46681;47.696;9.140;2023-02-13T00:33:17;9.27;;;8.27;;
60847;SDS011;46681;47.696;9.140;2023-02-13T00:35:43;9.77;;;8.77;;
60847;SDS011;46681;47.696;9.140;2023-02-13T00:38:09;8.73;;;7.83;;
60847;SDS011;46681;47.696;9.140;2023-02-13T00:40:37;9.97;;;8.73;;
60847;SDS011;46681;47.696;9.140;2023-02-13T00:43:03;8.93;;;8.03;;
60847;SDS011;46681;47.696;9.140;2023-02-13T00:45:28;9.23;;;8.23;;
60847;SDS011;46681;47.696;9.140;2023-02-13T00:47:56;9.70;;;8.70;;
60847;SDS011;46681;47.696;9.140;2023-02-13T00:50:23;9.67;;;8.63;;
60847;SDS011;46681;47.696;9.140;2023-02-13T00:52:48;9.00;;;8.10;;
60847;SDS011;46681;47.696;9.140;2023-02-13T00:55:14;9.73;;;8.37;;
60847;SDS011;46681;47.696;9.140;2023-02-13T00:57:39;9.97;;;8.33;;
60847;SDS011;46681;47.696;9.140;2023-02-13T01:00:13;9.40;;;7.90;;
60847;SDS011;46681;47.696;9.140;2023-02-13T01:02:39;9.67;;;8.43;;
60847;SDS011;46681;47.696;9.140;2023-02-13T01:05:04;9.50;;;8.50;;
60847;SDS011;46681;47.696;9.140;2023-02-13T01:07:30;10.37;;;8.90;;
60847;SDS011;46681;47.696;9.140;2023-02-13T01:09:56;9.83;;;8.80;;
60847;SDS011;46681;47.696;9.140;2023-02-13T01:12:21;9.30;;;8.27;;
60847;SDS011;46681;47.696;9.140;2023-02-13T01:14:47;9.33;;;7.97;;
60847;SDS011;46681;47.696;9.140;2023-02-13T01:17:12;10.10;;;9.10;;
60847;SDS011;46681;47.696;9.140;2023-02-13T01:19:39;10.63;;;8.90;;
60847;SDS011;46681;47.696;9.140;2023-02-13T01:22:06;9.47;;;8.47;;
60847;SDS011;46681;47.696;9.140;2023-02-13T01:24:35;10.33;;;8.73;;
60847;SDS011;46681;47.696;9.140;2023-02-13T01:27:00;10.57;;;9.43;;
60847;SDS011;46681;47.696;9.140;2023-02-13T01:29:26;10.53;;;8.77;;
60847;SDS011;46681;47.696;9.140;2023-02-13T01:31:51;10.83;;;8.87;;
60847;SDS011;46681;47.696;9.140;2023-02-13T01:34:17;9.70;;;8.70;;
60847;SDS011;46681;47.696;9.140;2023-02-13T01:36:43;12.67;;;9.23;;
60847;SDS011;46681;47.696;9.140;2023-02-13T01:39:11;9.87;;;8.87;;
60847;SDS011;46681;47.696;9.140;2023-02-13T01:41:37;10.73;;;9.03;;
60847;SDS011;46681;47.696;9.140;2023-02-13T01:44:03;10.53;;;8.97;;
60847;SDS011;46681;47.696;9.140;2023-02-13T01:47:07;9.67;;;8.60;;
60847;SDS011;46681;47.696;9.140;2023-02-13T01:49:40;8.97;;;8.07;;
60847;SDS011;46681;47.696;9.140;2023-02-13T01:52:09;10.13;;;8.70;;
60847;SDS011;46681;47.696;9.140;2023-02-13T01:54:36;11.40;;;9.27;;
60847;SDS011;46681;47.696;9.140;2023-02-13T01:57:07;10.87;;;8.60;;
60847;SDS011;46681;47.696;9.140;2023-02-13T01:59:41;10.47;;;9.40;;
60847;SDS011;46681;47.696;9.140;2023-02-13T02:02:15;10.63;;;8.73;;
60847;SDS011;46681;47.696;9.140;2023-02-13T02:04:47;10.50;;;9.40;;
60847;SDS011;46681;47.696;9.140;2023-02-13T02:07:25;9.87;;;8.40;;
60847;SDS011;46681;47.696;9.140;2023-02-13T02:09:58;9.83;;;8.83;;
60847;SDS011;46681;47.696;9.140;2023-02-13T02:12:28;10.43;;;8.60;;
60847;SDS011;46681;47.696;9.140;2023-02-13T02:15:14;9.83;;;8.83;;
60847;SDS011;46681;47.696;9.140;2023-02-13T02:17:40;10.07;;;9.07;;
60847;SDS011;46681;47.696;9.140;2023-02-13T02:44:23;10.33;;;8.77;;
60847;SDS011;46681;47.696;9.140;2023-02-13T02:49:29;10.27;;;8.93;;
60847;SDS011;46681;47.696;9.140;2023-02-13T02:52:13;9.80;;;8.80;;
60847;SDS011;46681;47.696;9.140;2023-02-13T02:54:49;10.70;;;9.60;;
60847;SDS011;46681;47.696;9.140;2023-02-13T02:57:20;9.23;;;8.33;;
60847;SDS011;46681;47.696;9.140;2023-02-13T02:59:52;9.60;;;8.60;;
60847;SDS011;46681;47.696;9.140;2023-02-13T03:02:19;9.70;;;8.70;;
60847;SDS011;46681;47.696;9.140;2023-02-13T03:04:52;10.90;;;9.60;;
60847;SDS011;46681;47.696;9.140;2023-02-13T03:07:21;9.73;;;8.73;;
60847;SDS011;46681;47.696;9.140;2023-02-13T03:09:48;10.43;;;9.07;;
60847;SDS011;46681;47.696;9.140;2023-02-13T03:12:18;9.23;;;8.33;;
60847;SDS011;46681;47.696;9.140;2023-02-13T03:14:47;9.60;;;8.60;;
60847;SDS011;46681;47.696;9.140;2023-02-13T03:17:14;9.17;;;8.27;;
60847;SDS011;46681;47.696;9.140;2023-02-13T03:29:56;10.27;;;9.17;;
60847;SDS011;46681;47.696;9.140;2023-02-13T03:32:48;9.33;;;8.37;;
60847;SDS011;46681;47.696;9.140;2023-02-13T03:38:10;9.77;;;8.77;;
60847;SDS011;46681;47.696;9.140;2023-02-13T03:40:48;9.60;;;8.33;;
60847;SDS011;46681;47.696;9.140;2023-02-13T03:43:22;10.93;;;9.07;;
60847;SDS011;46681;47.696;9.140;2023-02-13T03:45:51;8.90;;;8.00;;
60847;SDS011;46681;47.696;9.140;2023-02-13T03:48:17;9.47;;;8.53;;
60847;SDS011;46681;47.696;9.140;2023-02-13T03:50:49;10.40;;;9.10;;
60847;SDS011;46681;47.696;9.140;2023-02-13T03:53:15;9.97;;;8.97;;
60847;SDS011;46681;47.696;9.140;2023-02-13T03:55:42;10.10;;;9.03;;
60847;SDS011;46681;47.696;9.140;2023-02-13T03:58:37;10.53;;;8.73;;
60847;SDS011;46681;47.696;9.140;2023-02-13T04:01:06;10.30;;;8.60;;
60847;SDS011;46681;47.696;9.140;2023-02-13T04:06:18;9.70;;;8.70;;
60847;SDS011;46681;47.696;9.140;2023-02-13T04:08:52;9.63;;;8.70;;
60847;SDS011;46681;47.696;9.140;2023-02-13T04:12:24;9.40;;;8.23;;
60847;SDS011;46681;47.696;9.140;2023-02-13T04:17:26;9.77;;;8.57;;
60847;SDS011;46681;47.696;9.140;2023-02-13T04:19:57;10.43;;;9.40;;
60847;SDS011;46681;47.696;9.140;2023-02-13T04:22:25;10.13;;;9.13;;
60847;SDS011;46681;47.696;9.140;2023-02-13T04:24:51;10.30;;;8.60;;
60847;SDS011;46681;47.696;9.140;2023-02-13T04:27:22;9.13;;;7.77;;
60847;SDS011;46681;47.696;9.140;2023-02-13T04:29:53;9.23;;;8.23;;
60847;SDS011;46681;47.696;9.140;2023-02-13T04:32:18;11.10;;;8.67;;
60847;SDS011;46681;47.696;9.140;2023-02-13T04:34:44;9.33;;;8.03;;
60847;SDS011;46681;47.696;9.140;2023-02-13T04:37:09;9.07;;;7.97;;
60847;SDS011;46681;47.696;9.140;2023-02-13T04:39:35;10.27;;;9.00;;
60847;SDS011;46681;47.696;9.140;2023-02-13T04:42:01;9.20;;;8.30;;
60847;SDS011;46681;47.696;9.140;2023-02-13T04:44:27;9.57;;;8.40;;
60847;SDS011;46681;47.696;9.140;2023-02-13T04:46:53;9.73;;;8.73;;
60847;SDS011;46681;47.696;9.140;2023-02-13T04:49:19;9.70;;;8.70;;
60847;SDS011;46681;47.696;9.140;2023-02-13T04:51:44;9.70;;;8.70;;
60847;SDS011;46681;47.696;9.140;2023-02-13T04:54:10;10.43;;;8.40;;
60847;SDS011;46681;47.696;9.140;2023-02-13T04:56:35;9.60;;;8.53;;
60847;SDS011;46681;47.696;9.140;2023-02-13T04:59:01;9.13;;;8.23;;
60847;SDS011;46681;47.696;9.140;2023-02-13T05:01:26;8.60;;;7.77;;
60847;SDS011;46681;47.696;9.140;2023-02-13T05:03:56;9.80;;;8.83;;
60847;SDS011;46681;47.696;9.140;2023-02-13T05:06:22;8.87;;;7.97;;
60847;SDS011;46681;47.696;9.140;2023-02-13T05:08:47;9.17;;;8.27;;
60847;SDS011;46681;47.696;9.140;2023-02-13T05:11:18;9.93;;;8.93;;
60847;SDS011;46681;47.696;9.140;2023-02-13T05:13:44;10.10;;;8.70;;
60847;SDS011;46681;47.696;9.140;2023-02-13T05:16:09;9.37;;;8.17;;
60847;SDS011;46681;47.696;9.140;2023-02-13T05:18:38;9.23;;;8.33;;
60847;SDS011;46681;47.696;9.140;2023-02-13T05:21:03;10.17;;;9.10;;
60847;SDS011;46681;47.696;9.140;2023-02-13T05:23:33;9.10;;;8.20;;
60847;SDS011;46681;47.696;9.140;2023-02-13T05:25:59;9.57;;;8.57;;
60847;SDS011;46681;47.696;9.140;2023-02-13T05:28:24;8.77;;;7.87;;
60847;SDS011;46681;47.696;9.140;2023-02-13T05:30:50;9.00;;;8.10;;
60847;SDS011;46681;47.696;9.140;2023-02-13T05:33:18;9.10;;;7.53;;
60847;SDS011;46681;47.696;9.140;2023-02-13T05:35:44;9.10;;;8.20;;
60847;SDS011;46681;47.696;9.140;2023-02-13T05:38:09;8.77;;;7.87;;
60847;SDS011;46681;47.696;9.140;2023-02-13T05:40:35;9.17;;;8.27;;
60847;SDS011;46681;47.696;9.140;2023-02-13T05:43:00;9.23;;;8.23;;
60847;SDS011;46681;47.696;9.140;2023-02-13T05:45:26;10.23;;;8.30;;
60847;SDS011;46681;47.696;9.140;2023-02-13T05:47:51;9.73;;;8.73;;
60847;SDS011;46681;47.696;9.140;2023-02-13T05:50:21;9.07;;;8.17;;
60847;SDS011;46681;47.696;9.140;2023-02-13T05:52:47;9.83;;;8.83;;
60847;SDS011;46681;47.696;9.140;2023-02-13T05:55:12;12.00;;;9.37;;
60847;SDS011;46681;47.696;9.140;2023-02-13T05:57:38;9.43;;;8.43;;
60847;SDS011;46681;47.696;9.140;2023-02-13T06:00:10;10.00;;;9.00;;
60847;SDS011;46681;47.696;9.140;2023-02-13T06:02:41;10.63;;;9.20;;
60847;SDS011;46681;47.696;9.140;2023-02-13T06:05:07;10.23;;;9.23;;
60847;SDS011;46681;47.696;9.140;2023-02-13T06:07:40;9.33;;;8.30;;
60847;SDS011;46681;47.696;9.140;2023-02-13T06:10:11;10.20;;;9.20;;
60847;SDS011;46681;47.696;9.140;2023-02-13T06:12:37;11.20;;;9.37;;
60847;SDS011;46681;47.696;9.140;2023-02-13T06:15:05;9.87;;;8.50;;
60847;SDS011;46681;47.696;9.140;2023-02-13T06:17:31;10.60;;;9.33;;
60847;SDS011;46681;47.696;9.140;2023-02-13T06:20:00;11.57;;;9.80;;
60847;SDS011;46681;47.696;9.140;2023-02-13T06:22:30;10.13;;;9.03;;
60847;SDS011;46681;47.696;9.140;2023-02-13T06:24:56;9.97;;;8.90;;
60847;SDS011;46681;47.696;9.140;2023-02-13T06:27:21;10.97;;;9.27;;
60847;SDS011;46681;47.696;9.140;2023-02-13T06:29:47;10.47;;;9.37;;
60847;SDS011;46681;47.696;9.140;2023-02-13T06:32:14;9.57;;;8.10;;
60847;SDS011;46681;47.696;9.140;2023-02-13T06:34:41;11.97;;;9.23;;
60847;SDS011;46681;47.696;9.140;2023-02-13T06:37:07;9.57;;;8.57;;
60847;SDS011;46681;47.696;9.140;2023-02-13T06:39:34;12.40;;;10.03;;
60847;SDS011;46681;47.696;9.140;2023-02-13T06:42:00;10.67;;;9.23;;
60847;SDS011;46681;47.696;9.140;2023-02-13T06:44:26;10.50;;;9.30;;
60847;SDS011;46681;47.696;9.140;2023-02-13T06:46:56;14.10;;;9.57;;
60847;SDS011;46681;47.696;9.140;2023-02-13T06:49:22;10.33;;;8.70;;
60847;SDS011;46681;47.696;9.140;2023-02-13T06:51:47;10.57;;;9.47;;
60847;SDS011;46681;47.696;9.140;2023-02-13T06:54:15;12.97;;;9.90;;
60847;SDS011;46681;47.696;9.140;2023-02-13T06:56:43;11.97;;;10.60;;
60847;SDS011;46681;47.696;9.140;2023-02-13T06:59:09;12.43;;;11.07;;
60847;SDS011;46681;47.696;9.140;2023-02-13T07:01:39;14.13;;;10.83;;
60847;SDS011;46681;47.696;9.140;2023-02-13T07:04:05;12.80;;;10.57;;
60847;SDS011;46681;47.696;9.140;2023-02-13T07:06:34;11.57;;;10.30;;
60847;SDS011;46681;47.696;9.140;2023-02-13T07:09:03;13.83;;;11.50;;
60847;SDS011;46681;47.696;9.140;2023-02-13T07:11:31;13.27;;;10.97;;
60847;SDS011;46681;47.696;9.140;2023-02-13T07:13:58;12.97;;;10.87;;
60847;SDS011;46681;47.696;9.140;2023-02-13T07:16:26;12.70;;;11.13;;
60847;SDS011;46681;47.696;9.140;2023-02-13T07:18:51;13.03;;;11.43;;
60847;SDS011;46681;47.696;9.140;2023-02-13T07:21:18;13.47;;;11.33;;
60847;SDS011;46681;47.696;9.140;2023-02-13T07:23:44;12.03;;;10.37;;
60847;SDS011;46681;47.696;9.140;2023-02-13T07:26:09;13.40;;;11.83;;
60847;SDS011;46681;47.696;9.140;2023-02-13T07:28:38;12.93;;;10.40;;
60847;SDS011;46681;47.696;9.140;2023-02-13T07:31:09;12.90;;;10.63;;
60847;SDS011;46681;47.696;9.140;2023-02-13T07:33:41;12.23;;;10.87;;
60847;SDS011;46681;47.696;9.140;2023-02-13T07:36:08;13.30;;;11.23;;
60847;SDS011;46681;47.696;9.140;2023-02-13T07:38:34;12.60;;;11.30;;
60847;SDS011;46681;47.696;9.140;2023-02-13T07:41:03;13.13;;;11.07;;
60847;SDS011;46681;47.696;9.140;2023-02-13T07:43:29;12.20;;;10.87;;
60847;SDS011;46681;47.696;9.140;2023-02-13T07:45:58;13.53;;;11.70;;
60847;SDS011;46681;47.696;9.140;2023-02-13T07:48:27;13.77;;;11.63;;
60847;SDS011;46681;47.696;9.140;2023-02-13T07:51:03;15.80;;;12.10;;
60847;SDS011;46681;47.696;9.140;2023-02-13T07:53:40;13.80;;;11.30;;
60847;SDS011;46681;47.696;9.140;2023-02-13T07:56:17;14.57;;;11.73;;
60847;SDS011;46681;47.696;9.140;2023-02-13T07:58:47;14.27;;;12.00;;
60847;SDS011;46681;47.696;9.140;2023-02-13T08:01:14;14.00;;;11.80;;
60847;SDS011;46681;47.696;9.140;2023-02-13T08:03:48;13.90;;;12.10;;
60847;SDS011;46681;47.696;9.140;2023-02-13T08:06:22;15.83;;;12.00;;
60847;SDS011;46681;47.696;9.140;2023-02-13T08:08:53;14.30;;;12.07;;
60847;SDS011;46681;47.696;9.140;2023-02-13T08:11:26;14.07;;;11.63;;
60847;SDS011;46681;47.696;9.140;2023-02-13T08:14:01;16.47;;;12.60;;
60847;SDS011;46681;47.696;9.140;2023-02-13T08:16:29;14.50;;;12.13;;
60847;SDS011;46681;47.696;9.140;2023-02-13T08:18:54;16.60;;;13.13;;
60847;SDS011;46681;47.696;9.140;2023-02-13T08:21:26;14.77;;;12.10;;
60847;SDS011;46681;47.696;9.140;2023-02-13T08:23:51;16.33;;;12.70;;
60847;SDS011;46681;47.696;9.140;2023-02-13T08:26:19;15.80;;;12.83;;
60847;SDS011;46681;47.696;9.140;2023-02-13T08:28:45;16.07;;;12.50;;
60847;SDS011;46681;47.696;9.140;2023-02-13T08:31:10;15.93;;;12.13;;
60847;SDS011;46681;47.696;9.140;2023-02-13T08:33:54;16.10;;;12.93;;
60847;SDS011;46681;47.696;9.140;2023-02-13T08:36:21;14.80;;;11.83;;
60847;SDS011;46681;47.696;9.140;2023-02-13T08:38:58;16.37;;;13.17;;
60847;SDS011;46681;47.696;9.140;2023-02-13T08:41:23;16.10;;;12.87;;
60847;SDS011;46681;47.696;9.140;2023-02-13T08:44:10;15.93;;;12.33;;
60847;SDS011;46681;47.696;9.140;2023-02-13T08:46:42;18.93;;;14.67;;
60847;SDS011;46681;47.696;9.140;2023-02-13T08:49:10;14.40;;;12.60;;
60847;SDS011;46681;47.696;9.140;2023-02-13T08:51:41;15.93;;;12.90;;
60847;SDS011;46681;47.696;9.140;2023-02-13T08:54:09;15.47;;;12.77;;
60847;SDS011;46681;47.696;9.140;2023-02-13T08:56:40;15.50;;;12.60;;
60847;SDS011;46681;47.696;9.140;2023-02-13T08:59:08;16.27;;;12.80;;
60847;SDS011;46681;47.696;9.140;2023-02-13T09:01:33;16.73;;;13.43;;
60847;SDS011;46681;47.696;9.140;2023-02-13T09:04:01;14.37;;;12.33;;
60847;SDS011;46681;47.696;9.140;2023-02-13T09:06:30;17.80;;;14.00;;
60847;SDS011;46681;47.696;9.140;2023-02-13T09:09:00;19.63;;;14.50;;
60847;SDS011;46681;47.696;9.140;2023-02-13T09:11:28;19.10;;;14.70;;
60847;SDS011;46681;47.696;9.140;2023-02-13T09:13:56;17.27;;;13.47;;
60847;SDS011;46681;47.696;9.140;2023-02-13T09:16:21;16.93;;;13.63;;
60847;SDS011;46681;47.696;9.140;2023-02-13T09:18:49;17.53;;;13.97;;
60847;SDS011;46681;47.696;9.140;2023-02-13T09:21:17;16.83;;;13.60;;
60847;SDS011;46681;47.696;9.140;2023-02-13T09:23:51;17.17;;;14.10;;
60847;SDS011;46681;47.696;9.140;2023-02-13T09:26:27;19.27;;;13.70;;
60847;SDS011;46681;47.696;9.140;2023-02-13T09:28:58;17.97;;;14.43;;
60847;SDS011;46681;47.696;9.140;2023-02-13T09:31:26;19.37;;;14.87;;
60847;SDS011;46681;47.696;9.140;2023-02-13T09:33:52;18.20;;;14.27;;
60847;SDS011;46681;47.696;9.140;2023-02-13T09:36:20;20.13;;;15.33;;
60847;SDS011;46681;47.696;9.140;2023-02-13T09:38:59;21.30;;;15.20;;
60847;SDS011;46681;47.696;9.140;2023-02-13T09:41:38;18.57;;;14.53;;
60847;SDS011;46681;47.696;9.140;2023-02-13T09:44:20;19.23;;;15.67;;
60847;SDS011;46681;47.696;9.140;2023-02-13T09:52:36;20.40;;;15.90;;
60847;SDS011;46681;47.696;9.140;2023-02-13T09:55:15;21.07;;;15.50;;
60847;SDS011;46681;47.696;9.140;2023-02-13T09:58:15;18.17;;;14.37;;
60847;SDS011;46681;47.696;9.140;2023-02-13T10:03:54;23.57;;;17.50;;
60847;SDS011;46681;47.696;9.140;2023-02-13T10:06:43;22.70;;;16.67;;
60847;SDS011;46681;47.696;9.140;2023-02-13T10:18:21;21.07;;;16.10;;
60847;SDS011;46681;47.696;9.140;2023-02-13T10:20:57;21.37;;;17.20;;
60847;SDS011;46681;47.696;9.140;2023-02-13T10:23:31;22.17;;;17.70;;
60847;SDS011;46681;47.696;9.140;2023-02-13T10:26:38;19.67;;;15.80;;
60847;SDS011;46681;47.696;9.140;2023-02-13T10:29:33;22.30;;;17.83;;
60847;SDS011;46681;47.696;9.140;2023-02-13T10:32:26;20.93;;;16.43;;
60847;SDS011;46681;47.696;9.140;2023-02-13T10:34:58;21.73;;;16.43;;
60847;SDS011;46681;47.696;9.140;2023-02-13T10:37:50;21.80;;;16.47;;
60847;SDS011;46681;47.696;9.140;2023-02-13T10:40:31;21.73;;;16.53;;
60847;SDS011;46681;47.696;9.140;2023-02-13T10:43:20;21.03;;;16.60;;
60847;SDS011;46681;47.696;9.140;2023-02-13T10:51:42;22.83;;;17.77;;
60847;SDS011;46681;47.696;9.140;2023-02-13T10:54:21;22.27;;;17.30;;
60847;SDS011;46681;47.696;9.140;2023-02-13T11:02:56;21.53;;;17.20;;
60847;SDS011;46681;47.696;9.140;2023-02-13T11:05:29;21.77;;;17.13;;
60847;SDS011;46681;47.696;9.140;2023-02-13T11:08:11;23.67;;;17.53;;
60847;SDS011;46681;47.696;9.140;2023-02-13T11:11:03;22.77;;;17.60;;
60847;SDS011;46681;47.696;9.140;2023-02-13T11:14:06;24.17;;;17.50;;
60847;SDS011;46681;47.696;9.140;2023-02-13T11:22:05;25.17;;;18.67;;
60847;SDS011;46681;47.696;9.140;2023-02-13T11:24:49;22.73;;;17.10;;
60847;SDS011;46681;47.696;9.140;2023-02-13T11:27:32;23.30;;;18.23;;
60847;SDS011;46681;47.696;9.140;2023-02-13T11:30:32;25.23;;;18.40;;
60847;SDS011;46681;47.696;9.140;2023-02-13T11:33:01;23.07;;;17.23;;
60847;SDS011;46681;47.696;9.140;2023-02-13T11:37:07;23.90;;;18.10;;
60847;SDS011;46681;47.696;9.140;2023-02-13T11:41:57;23.50;;;18.23;;
60847;SDS011;46681;47.696;9.140;2023-02-13T11:45:40;23.17;;;17.30;;
60847;SDS011;46681;47.696;9.140;2023-02-13T11:47:53;23.60;;;17.83;;
60847;SDS011;46681;47.696;9.140;2023-02-13T11:50:30;24.60;;;18.07;;
60847;SDS011;46681;47.696;9.140;2023-02-13T11:53:19;22.13;;;16.50;;
60847;SDS011;46681;47.696;9.140;2023-02-13T11:58:46;24.07;;;16.93;;
60847;SDS011;46681;47.696;9.140;2023-02-13T12:01:41;22.60;;;16.23;;
60847;SDS011;46681;47.696;9.140;2023-02-13T12:04:16;22.53;;;16.73;;
60847;SDS011;46681;47.696;9.140;2023-02-13T12:07:00;24.23;;;17.33;;
60847;SDS011;46681;47.696;9.140;2023-02-13T12:10:28;25.80;;;17.77;;
60847;SDS011;46681;47.696;9.140;2023-02-13T12:13:04;26.10;;;17.10;;
60847;SDS011;46681;47.696;9.140;2023-02-13T12:15:49;21.80;;;16.40;;
60847;SDS011;46681;47.696;9.140;2023-02-13T12:18:39;21.97;;;17.67;;
60847;SDS011;46681;47.696;9.140;2023-02-13T12:30:39;19.93;;;15.37;;
60847;SDS011;46681;47.696;9.140;2023-02-13T12:42:00;24.90;;;17.67;;
60847;SDS011;46681;47.696;9.140;2023-02-13T12:56:38;24.63;;;16.60;;
60847;SDS011;46681;47.696;9.140;2023-02-13T12:59:30;24.27;;;16.33;;
60847;SDS011;46681;47.696;9.140;2023-02-13T13:11:02;23.57;;;18.20;;
60847;SDS011;46681;47.696;9.140;2023-02-13T13:13:51;24.13;;;19.03;;
60847;SDS011;46681;47.696;9.140;2023-02-13T13:24:58;24.90;;;18.50;;
60847;SDS011;46681;47.696;9.140;2023-02-13T13:27:41;24.60;;;18.87;;
60847;SDS011;46681;47.696;9.140;2023-02-13T13:30:14;25.90;;;17.97;;
60847;SDS011;46681;47.696;9.140;2023-02-13T13:32:47;24.03;;;18.27;;
60847;SDS011;46681;47.696;9.140;2023-02-13T13:35:25;22.13;;;17.03;;
60847;SDS011;46681;47.696;9.140;2023-02-13T13:55:04;26.03;;;20.20;;
60847;SDS011;46681;47.696;9.140;2023-02-13T13:57:58;25.77;;;18.97;;
60847;SDS011;46681;47.696;9.140;2023-02-13T14:00:26;24.97;;;18.63;;
60847;SDS011;46681;47.696;9.140;2023-02-13T14:03:46;24.13;;;18.33;;
60847;SDS011;46681;47.696;9.140;2023-02-13T14:06:13;27.57;;;19.77;;
60847;SDS011;46681;47.696;9.140;2023-02-13T14:15:47;23.03;;;18.03;;
60847;SDS011;46681;47.696;9.140;2023-02-13T14:17:58;22.53;;;16.67;;
60847;SDS011;46681;47.696;9.140;2023-02-13T14:26:26;22.43;;;16.43;;
60847;SDS011;46681;47.696;9.140;2023-02-13T14:31:59;20.73;;;16.70;;
60847;SDS011;46681;47.696;9.140;2023-02-13T14:34:29;24.73;;;17.37;;
60847;SDS011;46681;47.696;9.140;2023-02-13T14:39:42;23.73;;;17.60;;
60847;SDS011;46681;47.696;9.140;2023-02-13T14:42:58;23.73;;;17.93;;
60847;SDS011;46681;47.696;9.140;2023-02-13T14:52:12;26.03;;;19.00;;
60847;SDS011;46681;47.696;9.140;2023-02-13T14:55:03;21.37;;;16.57;;
60847;SDS011;46681;47.696;9.140;2023-02-13T14:58:06;22.30;;;17.27;;
60847;SDS011;46681;47.696;9.140;2023-02-13T15:01:01;25.17;;;18.73;;
60847;SDS011;46681;47.696;9.140;2023-02-13T15:03:47;23.47;;;17.70;;
60847;SDS011;46681;47.696;9.140;2023-02-13T15:06:37;23.43;;;18.40;;
60847;SDS011;46681;47.696;9.140;2023-02-13T15:09:57;24.43;;;18.50;;
60847;SDS011;46681;47.696;9.140;2023-02-13T15:12:24;24.40;;;17.93;;
60847;SDS011;46681;47.696;9.140;2023-02-13T15:15:04;27.87;;;18.77;;
60847;SDS011;46681;47.696;9.140;2023-02-13T15:18:01;22.13;;;17.17;;
60847;SDS011;46681;47.696;9.140;2023-02-13T15:20:46;23.90;;;17.27;;
60847;SDS011;46681;47.696;9.140;2023-02-13T15:23:29;22.20;;;17.37;;
60847;SDS011;46681;47.696;9.140;2023-02-13T15:26:17;26.10;;;18.53;;
60847;SDS011;46681;47.696;9.140;2023-02-13T15:31:39;24.23;;;18.17;;
60847;SDS011;46681;47.696;9.140;2023-02-13T15:34:17;26.77;;;19.33;;
60847;SDS011;46681;47.696;9.140;2023-02-13T15:36:59;24.37;;;18.20;;
60847;SDS011;46681;47.696;9.140;2023-02-13T15:39:31;23.67;;;18.77;;
60847;SDS011;46681;47.696;9.140;2023-02-13T15:42:09;24.47;;;19.17;;
60847;SDS011;46681;47.696;9.140;2023-02-13T15:44:42;22.13;;;17.53;;
60847;SDS011;46681;47.696;9.140;2023-02-13T15:47:33;23.97;;;17.50;;
60847;SDS011;46681;47.696;9.140;2023-02-13T15:49:58;22.40;;;17.87;;
60847;SDS011;46681;47.696;9.140;2023-02-13T15:55:17;24.33;;;17.80;;
60847;SDS011;46681;47.696;9.140;2023-02-13T15:58:10;24.53;;;18.70;;
60847;SDS011;46681;47.696;9.140;2023-02-13T16:00:40;23.23;;;18.13;;
60847;SDS011;46681;47.696;9.140;2023-02-13T16:03:14;22.97;;;18.37;;
60847;SDS011;46681;47.696;9.140;2023-02-13T16:05:53;23.80;;;18.10;;
60847;SDS011;46681;47.696;9.140;2023-02-13T16:11:19;20.73;;;15.07;;
60847;SDS011;46681;47.696;9.140;2023-02-13T16:17:03;23.27;;;16.63;;
60847;SDS011;46681;47.696;9.140;2023-02-13T16:19:52;22.73;;;17.67;;
60847;SDS011;46681;47.696;9.140;2023-02-13T16:25:22;21.23;;;16.90;;
60847;SDS011;46681;47.696;9.140;2023-02-13T16:28:02;23.17;;;16.90;;
60847;SDS011;46681;47.696;9.140;2023-02-13T16:30:44;23.37;;;17.90;;
60847;SDS011;46681;47.696;9.140;2023-02-13T16:33:26;22.17;;;16.97;;
60847;SDS011;46681;47.696;9.140;2023-02-13T16:39:09;21.93;;;16.97;;
60847;SDS011;46681;47.696;9.140;2023-02-13T16:42:01;24.93;;;18.67;;
60847;SDS011;46681;47.696;9.140;2023-02-13T16:44:47;22.23;;;17.80;;
60847;SDS011;46681;47.696;9.140;2023-02-13T16:47:39;23.17;;;17.77;;
60847;SDS011;46681;47.696;9.140;2023-02-13T16:50:13;22.77;;;17.50;;
60847;SDS011;46681;47.696;9.140;2023-02-13T16:52:45;23.63;;;18.33;;
60847;SDS011;46681;47.696;9.140;2023-02-13T16:55:14;23.53;;;17.87;;
60847;SDS011;46681;47.696;9.140;2023-02-13T16:57:43;23.23;;;18.37;;
60847;SDS011;46681;47.696;9.140;2023-02-13T17:00:21;24.70;;;17.60;;
60847;SDS011;46681;47.696;9.140;2023-02-13T17:02:55;25.63;;;18.10;;
60847;SDS011;46681;47.696;9.140;2023-02-13T17:05:25;23.07;;;17.67;;
60847;SDS011;46681;47.696;9.140;2023-02-13T17:08:03;25.40;;;17.50;;
60847;SDS011;46681;47.696;9.140;2023-02-13T17:10:30;24.43;;;18.13;;
60847;SDS011;46681;47.696;9.140;2023-02-13T17:15:43;20.53;;;16.83;;
60847;SDS011;46681;47.696;9.140;2023-02-13T17:18:21;22.40;;;17.43;;
60847;SDS011;46681;47.696;9.140;2023-02-13T17:20:50;21.50;;;17.03;;
60847;SDS011;46681;47.696;9.140;2023-02-13T17:23:19;25.53;;;18.40;;
60847;SDS011;46681;47.696;9.140;2023-02-13T17:25:50;23.27;;;17.10;;
60847;SDS011;46681;47.696;9.140;2023-02-13T17:28:25;21.10;;;16.77;;
60847;SDS011;46681;47.696;9.140;2023-02-13T17:31:03;22.90;;;17.40;;
60847;SDS011;46681;47.696;9.140;2023-02-13T17:33:53;22.97;;;17.70;;
60847;SDS011;46681;47.696;9.140;2023-02-13T17:36:21;26.67;;;18.17;;
60847;SDS011;46681;47.696;9.140;2023-02-13T17:38:49;23.07;;;18.50;;
60847;SDS011;46681;47.696;9.140;2023-02-13T17:41:17;23.97;;;16.67;;
60847;SDS011;46681;47.696;9.140;2023-02-13T17:46:31;23.30;;;17.23;;
60847;SDS011;46681;47.696;9.140;2023-02-13T17:49:05;24.50;;;18.53;;
60847;SDS011;46681;47.696;9.140;2023-02-13T17:51:34;24.13;;;18.23;;
60847;SDS011;46681;47.696;9.140;2023-02-13T17:54:12;24.30;;;18.50;;
60847;SDS011;46681;47.696;9.140;2023-02-13T17:56:47;24.73;;;19.17;;
60847;SDS011;46681;47.696;9.140;2023-02-13T17:59:13;25.97;;;19.63;;
60847;SDS011;46681;47.696;9.140;2023-02-13T18:01:40;24.73;;;19.27;;
60847;SDS011;46681;47.696;9.140;2023-02-13T18:04:06;25.03;;;19.53;;
60847;SDS011;46681;47.696;9.140;2023-02-13T18:06:32;25.17;;;20.23;;
60847;SDS011;46681;47.696;9.140;2023-02-13T18:08:57;23.90;;;18.07;;
60847;SDS011;46681;47.696;9.140;2023-02-13T18:11:27;25.87;;;19.67;;
60847;SDS011;46681;47.696;9.140;2023-02-13T18:13:59;25.70;;;18.63;;
60847;SDS011;46681;47.696;9.140;2023-02-13T18:16:32;23.43;;;19.20;;
60847;SDS011;46681;47.696;9.140;2023-02-13T18:19:04;25.27;;;18.90;;
60847;SDS011;46681;47.696;9.140;2023-02-13T18:21:36;23.53;;;17.80;;
60847;SDS011;46681;47.696;9.140;2023-02-13T18:24:07;40.90;;;25.77;;
60847;SDS011;46681;47.696;9.140;2023-02-13T18:26:46;31.57;;;21.37;;